createdAt,value
2018-06-03T00:02:13.501Z,14.50
2018-06-03T00:04:41.749Z,13.67
2018-06-03T00:07:10.010Z,13.80
2018-06-03T00:09:38.274Z,13.37
2018-06-03T00:12:06.553Z,14.37
2018-06-03T00:14:34.806Z,14.80
2018-06-03T00:17:03.115Z,15.03
2018-06-03T00:19:31.367Z,13.83
2018-06-03T00:21:59.655Z,15.27
2018-06-03T00:24:27.918Z,15.43
2018-06-03T00:26:56.157Z,14.27
2018-06-03T00:29:25.188Z,15.00
2018-06-03T00:31:54.480Z,13.83
2018-06-03T00:34:22.756Z,15.17
2018-06-03T00:36:51.014Z,14.67
2018-06-03T00:39:19.286Z,14.57
2018-06-03T00:41:47.572Z,14.07
2018-06-03T00:44:15.845Z,13.40
2018-06-03T00:46:44.112Z,13.40
2018-06-03T00:49:12.383Z,14.27
2018-06-03T00:51:41.396Z,15.53
2018-06-03T00:54:09.659Z,14.07
2018-06-03T00:56:49.959Z,13.90
2018-06-03T00:59:18.211Z,14.10
2018-06-03T01:01:47.230Z,14.13
2018-06-03T01:04:15.480Z,13.37
2018-06-03T01:06:43.732Z,13.30
2018-06-03T01:09:12.750Z,13.40
2018-06-03T01:11:41.020Z,12.97
2018-06-03T01:14:11.224Z,13.77
2018-06-03T01:16:40.234Z,14.83
2018-06-03T01:19:08.489Z,13.97
2018-06-03T01:21:37.503Z,13.47
2018-06-03T01:24:05.759Z,14.30
2018-06-03T01:26:34.779Z,14.73
2018-06-03T01:29:03.035Z,14.73
2018-06-03T01:31:32.049Z,14.57
2018-06-03T01:34:00.302Z,15.30
2018-06-03T01:36:28.578Z,15.07
2018-06-03T01:38:57.599Z,16.07
2018-06-03T01:41:25.842Z,15.07
2018-06-03T01:43:54.134Z,14.57
2018-06-03T01:46:23.164Z,15.20
2018-06-03T01:48:51.412Z,16.13
2018-06-03T01:51:19.666Z,14.87
2018-06-03T01:53:47.920Z,15.17
2018-06-03T01:56:16.181Z,15.40
2018-06-03T01:58:44.453Z,15.73
2018-06-03T02:01:12.693Z,15.27
2018-06-03T02:03:40.946Z,14.93
2018-06-03T02:06:09.207Z,15.60
2018-06-03T02:08:38.226Z,15.03
2018-06-03T02:11:06.483Z,16.60
2018-06-03T02:13:35.509Z,16.77
2018-06-03T02:16:03.772Z,15.20
2018-06-03T02:18:32.019Z,15.30
2018-06-03T02:21:01.031Z,14.47
2018-06-03T02:23:29.293Z,15.70
2018-06-03T02:25:58.322Z,16.30
2018-06-03T02:28:26.576Z,15.50
2018-06-03T02:30:54.836Z,15.83
2018-06-03T02:33:23.842Z,15.00
2018-06-03T02:35:52.107Z,14.93
2018-06-03T02:38:21.150Z,15.77
2018-06-03T02:40:49.416Z,15.07
2018-06-03T02:43:17.672Z,14.33
2018-06-03T02:45:45.938Z,16.30
2018-06-03T02:48:14.951Z,14.50
2018-06-03T02:50:43.216Z,15.20
2018-06-03T02:53:11.460Z,16.87
2018-06-03T02:55:39.720Z,14.90
2018-06-03T02:58:07.962Z,15.20
2018-06-03T03:00:36.208Z,15.67
2018-06-03T03:03:04.457Z,14.77
2018-06-03T03:05:32.707Z,15.07
2018-06-03T03:08:00.957Z,14.50
2018-06-03T03:10:29.205Z,14.70
2018-06-03T03:12:58.167Z,14.53
2018-06-03T03:15:26.378Z,13.20
2018-06-03T03:17:54.574Z,14.13
2018-06-03T03:20:22.846Z,13.33
2018-06-03T03:22:51.098Z,14.07
2018-06-03T03:25:20.114Z,15.07
2018-06-03T03:27:48.367Z,14.57
2018-06-03T03:30:17.390Z,14.03
2018-06-03T03:32:45.636Z,13.60
2018-06-03T03:35:14.648Z,16.00
2018-06-03T03:37:42.920Z,14.63
2018-06-03T03:40:11.180Z,14.63
2018-06-03T03:42:40.193Z,13.23
2018-06-03T03:45:08.454Z,14.77
2018-06-03T03:47:37.493Z,15.10
2018-06-03T03:50:05.766Z,13.80
2018-06-03T03:52:34.009Z,14.00
2018-06-03T03:55:02.271Z,14.00
2018-06-03T03:57:31.293Z,13.83
2018-06-03T03:59:59.540Z,13.67
2018-06-03T04:02:28.604Z,16.03
2018-06-03T04:05:29.744Z,13.67
2018-06-03T04:07:58.848Z,14.37
2018-06-03T04:10:28.104Z,13.40
2018-06-03T04:12:57.350Z,13.60
2018-06-03T04:15:26.580Z,14.50
2018-06-03T04:17:55.816Z,12.40
2018-06-03T04:20:25.055Z,13.80
2018-06-03T04:22:54.302Z,13.90
2018-06-03T04:25:23.532Z,12.80
2018-06-03T04:27:52.836Z,10.90
2018-06-03T04:30:22.081Z,12.83
2018-06-03T04:32:51.298Z,12.23
2018-06-03T04:35:20.541Z,12.10
2018-06-03T04:37:49.794Z,12.87
2018-06-03T04:40:19.090Z,12.50
2018-06-03T04:42:48.390Z,12.17
2018-06-03T04:45:17.642Z,13.53
2018-06-03T04:47:46.867Z,12.00
2018-06-03T04:50:15.775Z,11.50
2018-06-03T04:52:44.880Z,12.33
2018-06-03T04:55:14.231Z,11.13
2018-06-03T04:57:43.486Z,12.10
2018-06-03T05:00:12.784Z,12.67
2018-06-03T05:02:42.026Z,10.93
2018-06-03T05:05:11.253Z,12.20
2018-06-03T05:07:40.540Z,11.80
2018-06-03T05:10:09.807Z,11.83
2018-06-03T05:12:39.045Z,10.40
2018-06-03T05:15:08.283Z,12.43
2018-06-03T05:17:37.547Z,11.50
2018-06-03T05:20:06.848Z,10.57
2018-06-03T05:22:36.074Z,10.47
2018-06-03T05:25:05.342Z,10.03
2018-06-03T05:27:34.573Z,9.50
2018-06-03T05:30:03.973Z,9.07
2018-06-03T05:32:33.242Z,9.63
2018-06-03T05:35:02.661Z,8.60
2018-06-03T05:37:32.005Z,9.37
2018-06-03T05:40:01.446Z,11.13
2018-06-03T05:42:30.818Z,10.40
2018-06-03T05:45:00.189Z,9.87
2018-06-03T05:47:29.673Z,9.17
2018-06-03T05:49:59.020Z,10.37
2018-06-03T05:52:28.551Z,9.90
2018-06-03T05:54:57.930Z,8.33
2018-06-03T05:57:27.392Z,7.30
2018-06-03T05:59:56.732Z,8.17
2018-06-03T06:02:26.136Z,8.17
2018-06-03T06:04:55.513Z,7.90
2018-06-03T06:07:24.816Z,7.20
2018-06-03T06:09:54.171Z,7.37
2018-06-03T06:12:23.425Z,7.33
2018-06-03T06:14:52.832Z,7.83
2018-06-03T06:17:22.362Z,7.13
2018-06-03T06:19:51.663Z,7.20
2018-06-03T06:22:20.905Z,7.47
2018-06-03T06:24:50.227Z,7.90
2018-06-03T06:27:20.257Z,7.77
2018-06-03T06:29:49.563Z,7.00
2018-06-03T06:32:18.908Z,7.53
2018-06-03T06:34:48.181Z,7.27
2018-06-03T06:37:17.475Z,6.30
2018-06-03T06:39:46.691Z,6.40
2018-06-03T06:42:15.968Z,6.90
2018-06-03T06:44:45.215Z,6.70
2018-06-03T06:47:14.428Z,5.90
2018-06-03T06:49:43.661Z,6.70
2018-06-03T06:52:12.907Z,6.60
2018-06-03T06:54:42.213Z,6.70
2018-06-03T06:57:11.434Z,7.03
2018-06-03T06:59:40.675Z,6.50
2018-06-03T07:02:09.879Z,7.70
2018-06-03T07:04:39.109Z,7.83
2018-06-03T07:07:08.327Z,7.60
2018-06-03T07:09:37.555Z,7.33
2018-06-03T07:12:06.812Z,7.27
2018-06-03T07:14:36.069Z,9.90
2018-06-03T07:17:05.475Z,10.73
2018-06-03T07:19:34.746Z,16.60
2018-06-03T07:22:04.042Z,22.90
2018-06-03T07:24:33.302Z,18.50
2018-06-03T07:27:02.519Z,22.03
2018-06-03T07:29:31.840Z,22.17
2018-06-03T07:32:01.154Z,21.07
2018-06-03T07:34:30.354Z,23.50
2018-06-03T07:36:59.336Z,22.57
2018-06-03T07:39:28.480Z,21.40
2018-06-03T07:41:57.741Z,18.70
2018-06-03T07:44:27.005Z,19.20
2018-06-03T07:46:56.310Z,15.90
2018-06-03T07:49:25.671Z,19.03
2018-06-03T07:51:54.944Z,17.87
2018-06-03T07:54:24.169Z,16.17
2018-06-03T07:56:53.401Z,16.90
2018-06-03T07:59:22.635Z,15.30
2018-06-03T08:01:51.862Z,11.20
2018-06-03T08:04:21.105Z,10.93
2018-06-03T08:06:50.337Z,10.07
2018-06-03T08:09:19.565Z,9.90
2018-06-03T08:11:48.913Z,10.40
2018-06-03T08:14:18.187Z,10.50
2018-06-03T08:16:47.470Z,8.47
2018-06-03T08:19:16.722Z,8.70
2018-06-03T08:21:45.964Z,7.83
2018-06-03T08:24:15.189Z,7.20
2018-06-03T08:26:44.508Z,8.23
2018-06-03T08:29:13.754Z,7.67
2018-06-03T08:31:42.767Z,7.57
2018-06-03T08:34:11.550Z,7.10
2018-06-03T08:36:40.732Z,7.63
2018-06-03T08:39:10.010Z,6.30
2018-06-03T08:41:39.277Z,6.70
2018-06-03T08:44:08.555Z,6.93
2018-06-03T08:46:37.894Z,6.83
2018-06-03T08:49:07.107Z,6.63
2018-06-03T08:51:36.349Z,6.50
2018-06-03T08:54:05.622Z,7.30
2018-06-03T08:56:34.539Z,7.00
2018-06-03T08:59:03.318Z,6.23
2018-06-03T09:01:32.469Z,7.40
2018-06-03T09:04:01.780Z,6.10
2018-06-03T09:06:31.007Z,6.80
2018-06-03T09:09:00.278Z,5.90
2018-06-03T09:11:29.543Z,5.03
2018-06-03T09:13:58.762Z,5.00
2018-06-03T09:16:28.010Z,5.33
2018-06-03T09:18:57.258Z,4.90
2018-06-03T09:21:26.498Z,5.27
2018-06-03T09:23:55.731Z,4.43
2018-06-03T09:26:24.968Z,4.53
2018-06-03T09:28:54.226Z,4.47
2018-06-03T09:31:23.441Z,4.63
2018-06-03T09:33:52.658Z,5.80
2018-06-03T09:36:21.910Z,4.80
2018-06-03T09:38:51.156Z,4.13
2018-06-03T09:41:20.383Z,4.83
2018-06-03T09:43:49.642Z,2.90
2018-06-03T09:46:18.929Z,3.50
2018-06-03T09:48:48.235Z,3.30
2018-06-03T09:51:17.481Z,3.10
2018-06-03T09:53:46.792Z,2.83
2018-06-03T09:56:16.301Z,3.23
2018-06-03T09:58:45.538Z,4.10
2018-06-03T10:01:14.766Z,3.90
2018-06-03T10:03:43.991Z,4.03
2018-06-03T10:06:13.223Z,4.20
2018-06-03T10:08:42.472Z,3.47
2018-06-03T10:11:11.719Z,3.53
2018-06-03T10:13:40.974Z,3.60
2018-06-03T10:16:10.214Z,3.10
2018-06-03T10:18:39.515Z,3.37
2018-06-03T10:21:08.872Z,3.97
2018-06-03T10:23:38.166Z,3.00
2018-06-03T10:26:07.442Z,3.03
2018-06-03T10:28:36.718Z,2.67
2018-06-03T10:31:06.293Z,2.40
2018-06-03T10:33:35.592Z,2.70
2018-06-03T10:36:04.869Z,2.40
2018-06-03T10:38:34.265Z,2.80
2018-06-03T10:41:03.479Z,3.00
2018-06-03T10:43:32.742Z,2.57
2018-06-03T10:46:02.239Z,2.77
2018-06-03T10:48:31.814Z,3.73
2018-06-03T10:51:01.057Z,2.60
2018-06-03T10:53:30.057Z,2.70
2018-06-03T10:55:59.403Z,3.07
2018-06-03T10:58:28.728Z,2.63
2018-06-03T11:00:58.268Z,2.70
2018-06-03T11:03:27.497Z,3.60
2018-06-03T11:05:56.737Z,3.50
2018-06-03T11:08:26.003Z,2.80
2018-06-03T11:10:55.280Z,2.90
2018-06-03T11:13:24.530Z,3.10
2018-06-03T11:15:53.913Z,3.33
2018-06-03T11:18:23.225Z,3.40
2018-06-03T11:20:52.597Z,6.13
2018-06-03T11:23:22.068Z,2.70
2018-06-03T11:25:51.111Z,3.07
2018-06-03T11:28:20.211Z,3.50
2018-06-03T11:30:49.473Z,3.30
2018-06-03T11:33:18.711Z,3.03
2018-06-03T11:35:47.924Z,3.20
2018-06-03T11:38:17.161Z,3.90
2018-06-03T11:40:46.407Z,3.87
2018-06-03T11:43:15.675Z,3.17
2018-06-03T11:45:44.879Z,3.37
2018-06-03T11:48:14.101Z,3.10
2018-06-03T11:50:43.032Z,3.40
2018-06-03T11:53:12.165Z,3.10
2018-06-03T11:55:41.511Z,3.33
2018-06-03T11:58:54.623Z,3.27
2018-06-03T12:01:24.559Z,2.73
2018-06-03T12:03:53.846Z,3.50
2018-06-03T12:06:23.117Z,3.50
2018-06-03T12:08:52.399Z,2.90
2018-06-03T12:11:21.645Z,2.77
2018-06-03T12:13:51.046Z,3.30
2018-06-03T12:16:20.335Z,2.90
2018-06-03T12:18:49.662Z,3.97
2018-06-03T12:21:19.061Z,3.10
2018-06-03T12:23:48.336Z,3.90
2018-06-03T12:26:17.597Z,3.70
2018-06-03T12:28:46.947Z,4.30
2018-06-03T12:31:16.199Z,3.60
2018-06-03T12:33:45.478Z,3.10
2018-06-03T12:36:14.772Z,3.77
2018-06-03T12:38:43.994Z,2.93
2018-06-03T12:41:13.314Z,3.10
2018-06-03T12:43:42.568Z,4.17
2018-06-03T12:46:11.814Z,3.33
2018-06-03T12:48:41.033Z,3.60
2018-06-03T12:51:10.293Z,3.33
2018-06-03T12:53:39.569Z,3.13
2018-06-03T12:56:08.845Z,3.20
2018-06-03T12:58:38.109Z,3.90
2018-06-03T13:01:07.359Z,3.30
2018-06-03T13:03:36.283Z,3.80
2018-06-03T13:06:05.198Z,4.00
2018-06-03T13:08:34.316Z,3.57
2018-06-03T13:11:03.535Z,2.60
2018-06-03T13:13:32.791Z,3.40
2018-06-03T13:16:02.059Z,3.40
2018-06-03T13:18:31.366Z,3.73
2018-06-03T13:21:00.628Z,3.33
2018-06-03T13:23:29.906Z,3.03
2018-06-03T13:25:59.163Z,3.33
2018-06-03T13:28:28.400Z,3.30
2018-06-03T13:30:57.674Z,3.33
2018-06-03T13:33:26.939Z,3.10
2018-06-03T13:35:55.949Z,3.10
2018-06-03T13:38:25.124Z,3.83
2018-06-03T13:40:54.394Z,3.07
2018-06-03T13:43:23.647Z,3.50
2018-06-03T13:45:52.975Z,3.83
2018-06-03T13:48:22.234Z,3.90
2018-06-03T13:50:51.474Z,4.33
2018-06-03T13:53:20.719Z,3.70
2018-06-03T13:55:49.647Z,3.90
2018-06-03T13:58:18.807Z,4.60
2018-06-03T14:00:48.029Z,4.97
2018-06-03T14:03:17.327Z,4.00
2018-06-03T14:05:46.607Z,3.13
2018-06-03T14:08:15.941Z,4.00
2018-06-03T14:10:45.225Z,3.87
2018-06-03T14:13:14.464Z,3.40
2018-06-03T14:15:43.946Z,3.80
2018-06-03T14:18:13.248Z,4.10
2018-06-03T14:20:42.499Z,4.50
2018-06-03T14:23:11.405Z,3.90
2018-06-03T14:25:40.549Z,3.53
2018-06-03T14:28:09.813Z,3.40
2018-06-03T14:30:39.080Z,3.50
2018-06-03T14:33:08.379Z,3.93
2018-06-03T14:35:37.648Z,3.10
2018-06-03T14:38:07.456Z,4.00
2018-06-03T14:40:36.776Z,4.30
2018-06-03T14:43:06.331Z,4.10
2018-06-03T14:45:35.628Z,4.27
2018-06-03T14:48:04.556Z,4.57
2018-06-03T14:50:33.798Z,4.50
2018-06-03T14:53:03.047Z,4.03
2018-06-03T14:55:32.359Z,4.53
2018-06-03T14:58:01.664Z,4.43
2018-06-03T15:00:30.904Z,4.07
2018-06-03T15:03:00.265Z,3.70
2018-06-03T15:05:29.570Z,4.50
2018-06-03T15:07:58.909Z,4.30
2018-06-03T15:10:28.162Z,4.10
2018-06-03T15:12:57.499Z,3.90
2018-06-03T15:15:26.952Z,3.70
2018-06-03T15:17:56.199Z,3.57
2018-06-03T15:20:25.474Z,3.77
2018-06-03T15:22:54.772Z,3.77
2018-06-03T15:25:24.042Z,3.97
2018-06-03T15:27:53.297Z,4.37
2018-06-03T15:30:22.540Z,4.10
2018-06-03T15:32:51.799Z,4.10
2018-06-03T15:35:20.751Z,5.43
2018-06-03T15:37:49.883Z,4.50
2018-06-03T15:40:19.173Z,4.80
2018-06-03T15:42:48.453Z,4.57
2018-06-03T15:45:17.876Z,6.57
2018-06-03T15:47:47.131Z,5.33
2018-06-03T15:50:16.505Z,4.63
2018-06-03T15:52:45.812Z,4.77
2018-06-03T15:55:14.729Z,4.87
2018-06-03T15:57:43.857Z,5.57
2018-06-03T16:00:13.161Z,4.83
2018-06-03T16:02:42.543Z,5.13
2018-06-03T16:05:11.779Z,6.10
2018-06-03T16:07:41.097Z,7.60
2018-06-03T16:10:10.031Z,5.57
2018-06-03T16:12:38.837Z,6.03
2018-06-03T16:15:08.019Z,6.80
2018-06-03T16:17:37.315Z,5.90
2018-06-03T16:20:06.618Z,5.70
2018-06-03T16:22:35.965Z,5.93
2018-06-03T16:25:05.253Z,6.50
2018-06-03T16:27:34.557Z,7.00
2018-06-03T16:30:03.921Z,6.73
2018-06-03T16:32:34.200Z,6.87
2018-06-03T16:35:03.631Z,7.90
2018-06-03T16:37:32.901Z,6.90
2018-06-03T16:40:02.140Z,7.10
2018-06-03T16:42:31.420Z,7.30
2018-06-03T16:45:00.679Z,7.00
2018-06-03T16:47:30.027Z,7.80
2018-06-03T16:49:59.301Z,7.13
2018-06-03T16:52:28.229Z,6.70
2018-06-03T16:54:57.380Z,8.30
2018-06-03T16:57:26.359Z,7.80
2018-06-03T16:59:55.610Z,7.20
2018-06-03T17:02:24.869Z,7.10
2018-06-03T17:04:53.861Z,6.80
2018-06-03T17:07:23.014Z,7.37
2018-06-03T17:09:52.395Z,6.90
2018-06-03T17:12:21.672Z,8.03
2018-06-03T17:14:50.997Z,6.80
2018-06-03T17:17:20.251Z,8.50
2018-06-03T17:19:49.512Z,7.90
2018-06-03T17:22:18.764Z,7.87
2018-06-03T17:24:47.726Z,7.53
2018-06-03T17:27:16.967Z,8.23
2018-06-03T17:29:46.166Z,7.73
2018-06-03T17:32:15.503Z,8.40
2018-06-03T17:34:44.732Z,8.60
2018-06-03T17:37:13.985Z,7.60
2018-06-03T17:39:43.301Z,8.40
2018-06-03T17:42:12.649Z,9.47
2018-06-03T17:44:41.918Z,9.07
2018-06-03T17:47:11.211Z,7.57
2018-06-03T17:49:40.492Z,10.07
2018-06-03T17:52:09.740Z,10.23
2018-06-03T17:54:38.788Z,7.50
2018-06-03T17:57:08.068Z,8.70
2018-06-03T17:59:37.335Z,8.50
2018-06-03T18:02:06.599Z,9.17
2018-06-03T18:04:35.897Z,9.50
2018-06-03T18:07:05.182Z,8.63
2018-06-03T18:09:34.501Z,8.33
2018-06-03T18:12:03.801Z,9.23
2018-06-03T18:14:33.095Z,8.00
2018-06-03T18:17:02.486Z,8.43
2018-06-03T18:19:31.633Z,7.80
2018-06-03T18:22:00.890Z,8.17
2018-06-03T18:24:30.158Z,8.20
2018-06-03T18:26:59.795Z,8.53
2018-06-03T18:29:29.046Z,8.70
2018-06-03T18:31:58.303Z,7.40
2018-06-03T18:34:27.544Z,7.83
2018-06-03T18:36:56.855Z,8.60
2018-06-03T18:39:26.230Z,8.10
2018-06-03T18:41:55.597Z,7.97
2018-06-03T18:44:24.978Z,6.60
2018-06-03T18:46:54.418Z,7.90
2018-06-03T18:49:23.902Z,9.83
2018-06-03T18:51:53.172Z,8.50
2018-06-03T18:54:22.420Z,10.10
2018-06-03T18:56:51.778Z,10.90
2018-06-03T18:59:21.159Z,14.40
2018-06-03T19:01:50.431Z,9.50
2018-06-03T19:04:19.707Z,10.63
2018-06-03T19:06:48.988Z,9.90
2018-06-03T19:09:18.229Z,10.40
2018-06-03T19:11:47.559Z,11.50
2018-06-03T19:14:16.514Z,10.47
2018-06-03T19:16:45.642Z,11.53
2018-06-03T19:19:14.899Z,11.00
2018-06-03T19:21:44.182Z,11.60
2018-06-03T19:24:13.508Z,11.37
2018-06-03T19:26:43.714Z,13.30
2018-06-03T19:29:12.995Z,12.73
2018-06-03T19:31:42.280Z,11.93
2018-06-03T19:34:11.519Z,12.57
2018-06-03T19:36:40.783Z,11.50
2018-06-03T19:39:10.117Z,12.10
2018-06-03T19:41:39.436Z,11.53
2018-06-03T19:44:08.674Z,13.30
2018-06-03T19:46:38.076Z,11.93
2018-06-03T19:49:07.473Z,12.93
2018-06-03T19:51:37.276Z,13.47
2018-06-03T19:54:06.676Z,13.40
2018-06-03T19:56:35.965Z,14.93
2018-06-03T19:59:04.910Z,13.20
2018-06-03T20:01:34.066Z,14.17
2018-06-03T20:04:03.582Z,14.10
2018-06-03T20:06:33.147Z,14.03
2018-06-03T20:09:02.438Z,14.40
2018-06-03T20:11:31.692Z,14.17
2018-06-03T20:14:00.936Z,13.10
2018-06-03T20:16:30.308Z,14.20
2018-06-03T20:18:59.546Z,14.27
2018-06-03T20:21:28.876Z,13.80
2018-06-03T20:23:58.270Z,13.83
2018-06-03T20:26:27.533Z,15.57
2018-06-03T20:28:56.811Z,13.97
2018-06-03T20:31:26.114Z,13.20
2018-06-03T20:33:55.486Z,14.33
2018-06-03T20:36:24.809Z,14.33
2018-06-03T20:38:55.101Z,14.70
2018-06-03T20:41:24.396Z,14.60
2018-06-03T20:43:53.695Z,15.17
2018-06-03T20:46:22.991Z,15.50
2018-06-03T20:48:52.302Z,16.20
2018-06-03T20:51:21.617Z,15.80
2018-06-03T20:53:50.973Z,16.47
2018-06-03T20:56:20.259Z,17.10
2018-06-03T20:58:49.345Z,17.50
2018-06-03T21:01:18.594Z,16.90
2018-06-03T21:03:47.896Z,18.33
2018-06-03T21:06:17.325Z,16.93
2018-06-03T21:08:46.631Z,17.67
2018-06-03T21:11:15.957Z,19.13
2018-06-03T21:13:45.305Z,18.87
2018-06-03T21:16:14.605Z,17.97
2018-06-03T21:18:43.938Z,19.43
2018-06-03T21:21:13.253Z,20.10
2018-06-03T21:23:42.918Z,19.37
2018-06-03T21:26:11.854Z,19.90
2018-06-03T21:28:41.057Z,19.60
2018-06-03T21:31:10.371Z,19.90
2018-06-03T21:33:39.660Z,19.20
2018-06-03T21:36:09.064Z,20.70
2018-06-03T21:38:38.365Z,20.27
2018-06-03T21:41:07.676Z,22.37
2018-06-03T21:43:36.925Z,20.33
2018-06-03T21:46:06.196Z,21.70
2018-06-03T21:48:35.509Z,19.73
2018-06-03T21:51:04.791Z,21.80
2018-06-03T21:53:34.177Z,19.83
2018-06-03T21:56:03.485Z,23.10
2018-06-03T21:58:32.826Z,21.83
2018-06-03T22:01:02.126Z,22.90
2018-06-03T22:03:31.378Z,21.33
2018-06-03T22:06:00.684Z,23.57
2018-06-03T22:08:29.999Z,22.30
2018-06-03T22:10:59.304Z,23.43
2018-06-03T22:13:28.584Z,24.70
2018-06-03T22:15:57.845Z,24.60
2018-06-03T22:18:27.149Z,24.90
2018-06-03T22:20:56.431Z,22.60
2018-06-03T22:23:25.765Z,24.40
2018-06-03T22:25:55.103Z,22.10
2018-06-03T22:28:24.349Z,23.97
2018-06-03T22:30:53.697Z,23.23
2018-06-03T22:33:22.945Z,24.73
2018-06-03T22:35:52.224Z,25.50
2018-06-03T22:38:21.617Z,25.90
2018-06-03T22:40:50.934Z,25.67
2018-06-03T22:43:20.204Z,25.67
2018-06-03T22:45:49.455Z,25.13
2018-06-03T22:48:18.750Z,26.00
2018-06-03T22:50:48.044Z,26.27
2018-06-03T22:53:17.340Z,26.10
2018-06-03T22:55:46.635Z,25.93
2018-06-03T22:58:15.875Z,28.10
2018-06-03T23:00:45.192Z,28.43
2018-06-03T23:03:15.906Z,25.03
2018-06-03T23:05:45.088Z,26.60
2018-06-03T23:08:14.382Z,25.23
2018-06-03T23:10:43.685Z,28.57
2018-06-03T23:13:12.981Z,29.63
2018-06-03T23:15:42.359Z,28.97
2018-06-03T23:18:11.619Z,27.20
2018-06-03T23:20:40.918Z,28.27
2018-06-03T23:23:10.192Z,31.30
2018-06-03T23:25:39.098Z,30.90
2018-06-03T23:28:08.271Z,31.40
2018-06-03T23:30:37.545Z,29.70
2018-06-03T23:33:06.811Z,27.20
2018-06-03T23:35:36.138Z,29.57
2018-06-03T23:38:05.475Z,30.67
2018-06-03T23:40:34.787Z,31.87
2018-06-03T23:43:04.070Z,27.23
2018-06-03T23:45:33.344Z,30.23
2018-06-03T23:48:02.596Z,30.13
2018-06-03T23:50:31.873Z,28.37
2018-06-03T23:53:01.368Z,30.00
2018-06-03T23:55:30.656Z,30.07
2018-06-03T23:57:59.910Z,30.27
